Etusivu
METAR-TAF:

METAR-TAF

Lentoasemat :

Harry P. Williams Memorial Airport

Patterson, Louisiana, Yhdysvallat

Leveyspiiri: 29-43N, Pituuspiiri: 091-20W, korkeus merenpinnasta: 3 m

Tämänhetkinen sää

Tämä raportti tehtiin 58 minuuttia sitten, kello 20.56 UTC
Tuuli 8 kn etelästä
Lämpötila 30°C
Kosteus 75%
Ilmanpaine 1014 hPa
Näkyvyys: 16.1 km
Muutamia pilviä 2800 ft:n korkeudessa

METAR: KPTN 232056Z AUTO 19008KT 10SM FEW028 30/25 A2993 RMK AO2 SLP137 T03000250 56008 $

Aika: 16:54 (21:54 UTC)


TAF: puuttuu

Säähavainnot ja -ennusteet yli 4000 lentoasemalta (METAR- ja TAF-raportit).

Käytössä olevat sääasemat on merkitty karttaan keltaisilla ja punaisilla pisteillä.

Aseta hiiri pisteen päälle nähdäksesi sääaseman nimen.

Klikkaa sitten nähdäksesi säähavainnot ja -ennusteet.

Kartan vaihtaminen: klikkaa mustalla rastilla varustettuja vihreitä pisteitä, niin voit zoomata sisään; viivalla varustettua vihreää pistettä, niin voit zoomata ulos tai vihreitä nuolia, niin pääset viereisille kartoille.


METAR-TAF: